Time;durP1;ratioP1;P1;durP2;ratioP2;P2;SDS_P1;SDS_P2;PMS_P1;PMS_P2;Temp;Humidity;BMP_temperature;BMP_pressure;BME280_temperature;BME280_humidity;BME280_pressure;Samples;Min_cycle;Max_cycle;Signal;HPM_P1;HPM_P2
2022/11/02 00:01:37;;;;;;;3.93;2.90;;;14.30;76.00;14.50;97008.00;;;;5028356;28;20579;-81
2022/11/02 00:04:04;;;;;;;3.73;2.80;;;14.30;75.90;14.50;97005.00;;;;5022327;28;20229;-81
2022/11/02 00:06:33;;;;;;;3.43;2.77;;;14.30;75.90;14.50;97012.00;;;;5026237;28;20607;-81
2022/11/02 00:09:00;;;;;;;3.37;3.07;;;14.30;75.70;14.50;97020.00;;;;5026002;28;20221;-82
2022/11/02 00:11:27;;;;;;;4.07;2.33;;;14.30;75.60;14.40;97011.00;;;;5024292;28;20204;-80
2022/11/02 00:13:54;;;;;;;3.83;2.43;;;14.30;75.50;14.40;97018.00;;;;5025447;28;20221;-81
2022/11/02 00:16:24;;;;;;;3.30;3.03;;;14.30;75.50;14.40;97019.00;;;;5023390;28;20569;-81
2022/11/02 00:18:56;;;;;;;3.47;2.57;;;14.30;75.60;14.40;97021.00;;;;5012197;28;20217;-81
2022/11/02 00:21:26;;;;;;;2.43;2.30;;;14.30;75.60;14.40;97015.00;;;;5027792;28;20201;-81
2022/11/02 00:23:57;;;;;;;2.97;2.57;;;14.20;75.60;14.30;97017.00;;;;5024592;28;20627;-81
2022/11/02 00:26:25;;;;;;;2.97;2.63;;;14.20;75.60;14.30;97019.00;;;;5026876;28;20225;-81
2022/11/02 00:28:53;;;;;;;2.90;2.37;;;14.20;75.60;14.30;97018.00;;;;5021945;28;20209;-80
2022/11/02 00:31:21;;;;;;;3.40;2.93;;;14.20;75.70;14.30;97015.00;;;;5026823;28;20718;-81
2022/11/02 00:33:48;;;;;;;3.93;2.47;;;14.10;75.70;14.30;97015.00;;;;5024626;28;20244;-80
2022/11/02 00:36:16;;;;;;;3.03;2.63;;;14.20;75.80;14.30;97013.00;;;;5030006;28;20202;-81
2022/11/02 00:38:43;;;;;;;2.50;2.30;;;14.20;75.70;14.30;97019.00;;;;5017323;28;20191;-81
2022/11/02 00:41:12;;;;;;;2.50;2.23;;;14.10;75.80;14.30;97026.00;;;;5021414;28;20222;-80
2022/11/02 00:43:39;;;;;;;2.70;2.50;;;14.10;75.70;14.20;97025.00;;;;5022757;28;20312;-80
2022/11/02 00:46:06;;;;;;;2.93;2.50;;;14.10;75.60;14.20;97031.00;;;;5023974;28;20205;-80
2022/11/02 00:48:33;;;;;;;2.60;2.40;;;14.10;75.60;14.20;97029.00;;;;5032199;28;20645;-81
2022/11/02 00:51:00;;;;;;;2.77;2.30;;;14.10;75.70;14.20;97027.00;;;;5028724;28;20597;-80
2022/11/02 00:53:28;;;;;;;3.10;2.80;;;14.10;75.60;14.20;97032.00;;;;5019981;28;20560;-81
2022/11/02 00:55:55;;;;;;;2.90;2.70;;;14.10;75.60;14.10;97031.00;;;;5027544;28;20197;-81
2022/11/02 00:58:23;;;;;;;2.60;2.40;;;14.00;75.60;14.10;97021.00;;;;5022124;28;20647;-80
2022/11/02 01:00:50;;;;;;;2.70;2.50;;;14.00;75.50;14.10;97037.00;;;;5026017;28;20209;-80
2022/11/02 01:03:18;;;;;;;2.80;2.50;;;14.00;75.50;14.10;97026.00;;;;5021770;28;20733;-80
2022/11/02 01:05:45;;;;;;;3.07;2.23;;;14.00;75.50;14.10;97025.00;;;;5025114;28;20209;-80
2022/11/02 01:08:12;;;;;;;2.77;2.40;;;14.00;75.50;14.10;97024.00;;;;5030750;28;20232;-81
2022/11/02 01:10:39;;;;;;;5.03;2.63;;;14.00;75.50;14.10;97026.00;;;;5014044;28;20206;-80
2022/11/02 01:13:07;;;;;;;3.00;2.70;;;13.90;75.50;14.00;97025.00;;;;5032707;28;20221;-81
2022/11/02 01:15:38;;;;;;;3.93;2.80;;;13.90;75.50;14.00;97021.00;;;;5026855;28;20265;-81
2022/11/02 01:18:05;;;;;;;2.63;2.43;;;13.90;75.40;14.00;97021.00;;;;5023194;28;20213;-81
2022/11/02 01:20:32;;;;;;;3.00;2.63;;;13.90;75.20;13.90;97019.00;;;;5015640;28;20589;-81
2022/11/02 01:23:00;;;;;;;2.40;2.30;;;13.90;75.20;13.90;97021.00;;;;5021610;28;20189;-80
2022/11/02 01:25:27;;;;;;;2.87;2.57;;;13.80;75.00;13.90;97014.00;;;;5023212;28;20198;-80
2022/11/02 01:27:54;;;;;;;4.30;2.73;;;13.80;75.20;13.80;97017.00;;;;5025452;28;20225;-80
2022/11/02 01:30:21;;;;;;;3.10;2.90;;;13.80;75.10;13.80;97021.00;;;;5022601;28;20245;-80
2022/11/02 01:32:50;;;;;;;2.70;2.50;;;13.80;75.10;13.70;97020.00;;;;5025328;28;20209;-80
2022/11/02 01:35:17;;;;;;;2.63;2.43;;;13.70;75.00;13.70;97020.00;;;;5026874;28;20202;-81
2022/11/02 01:37:44;;;;;;;2.77;2.57;;;13.70;75.00;13.70;97030.00;;;;5023935;28;20198;-80
2022/11/02 01:40:12;;;;;;;2.63;2.37;;;13.70;75.00;13.70;97036.00;;;;5022744;28;20320;-80
2022/11/02 01:42:39;;;;;;;2.80;2.57;;;13.60;75.00;13.60;97034.00;;;;5025466;28;20217;-80
2022/11/02 01:45:09;;;;;;;2.50;2.30;;;13.60;74.90;13.60;97033.00;;;;5027093;28;20313;-80
2022/11/02 01:47:40;;;;;;;2.50;2.30;;;13.50;74.90;13.60;97031.00;;;;5015899;28;20206;-80
2022/11/02 01:50:15;;;;;;;2.43;2.23;;;13.50;75.00;13.50;97039.00;;;;5027797;28;20260;-80
2022/11/02 01:52:42;;;;;;;2.33;2.13;;;13.50;75.20;13.50;97041.00;;;;5025357;28;20660;-79
2022/11/02 01:55:15;;;;;;;2.70;2.50;;;13.50;75.30;13.50;97041.00;;;;5019704;28;20366;-80
2022/11/02 01:57:47;;;;;;;2.57;2.37;;;13.50;75.20;13.40;97037.00;;;;5026119;28;20570;-80
2022/11/02 02:00:18;;;;;;;2.73;2.43;;;13.40;75.20;13.40;97027.00;;;;5023235;28;20225;-79
2022/11/02 02:02:53;;;;;;;2.40;2.20;;;13.40;75.30;13.40;97034.00;;;;5027413;28;20280;-80
2022/11/02 02:05:24;;;;;;;3.03;2.40;;;13.40;75.50;13.40;97033.00;;;;5027485;28;20228;-78
2022/11/02 02:07:52;;;;;;;2.30;2.10;;;13.40;75.50;13.40;97034.00;;;;5024464;28;20194;-80
2022/11/02 02:10:20;;;;;;;2.00;1.90;;;13.30;75.40;13.40;97032.00;;;;5022272;28;20843;-79
2022/11/02 02:12:48;;;;;;;2.40;2.20;;;13.30;75.50;13.40;97034.00;;;;5023944;28;20243;-80
2022/11/02 02:15:16;;;;;;;2.63;2.00;;;13.30;75.60;13.40;97031.00;;;;5023566;28;20709;-80
2022/11/02 02:17:51;;;;;;;2.63;2.03;;;13.30;75.80;13.40;97030.00;;;;5027312;28;20198;-80
2022/11/02 02:20:40;;;;;;;2.23;1.80;;;13.30;75.30;13.40;97032.00;;;;5010786;28;20242;-80
2022/11/02 02:24:09;;;;;;;2.40;2.00;;;13.30;75.60;13.30;97040.00;;;;5029526;28;20260;-80
2022/11/02 02:27:04;;;;;;;2.00;1.80;;;13.30;75.80;13.30;97040.00;;;;5010472;28;20206;-80
2022/11/02 02:29:45;;;;;;;1.93;1.73;;;13.30;75.90;13.30;97042.00;;;;5021972;28;20244;-80
2022/11/02 02:32:22;;;;;;;2.83;2.50;;;13.30;76.50;13.30;97042.00;;;;5024636;28;20228;-80
2022/11/02 02:34:54;;;;;;;2.33;2.00;;;13.20;75.70;13.30;97039.00;;;;5018617;28;20213;-80
2022/11/02 02:37:31;;;;;;;2.30;2.10;;;13.20;76.00;13.30;97046.00;;;;5025868;28;20209;-81
2022/11/02 02:40:05;;;;;;;2.30;2.10;;;13.20;76.10;13.30;97049.00;;;;5024415;28;20233;-80
2022/11/02 02:42:40;;;;;;;2.70;2.40;;;13.20;76.20;13.40;97057.00;;;;5029257;28;20209;-80
2022/11/02 02:45:15;;;;;;;3.63;2.20;;;13.20;76.50;13.40;97042.00;;;;5031844;28;20247;-81
2022/11/02 02:47:50;;;;;;;2.77;2.57;;;13.30;76.80;13.40;97049.00;;;;5021417;28;20209;-80
2022/11/02 02:50:23;;;;;;;3.17;2.50;;;13.30;77.00;13.50;97047.00;;;;5024959;28;20217;-80
2022/11/02 02:52:53;;;;;;;2.80;2.57;;;13.30;77.20;13.50;97047.00;;;;5018426;28;20257;-79
2022/11/02 02:55:36;;;;;;;4.23;2.27;;;13.30;77.30;13.50;97058.00;;;;5024530;28;20211;-79
2022/11/02 02:58:06;;;;;;;2.20;2.10;;;13.40;77.50;13.60;97055.00;;;;5024393;28;20200;-80
2022/11/02 03:00:36;;;;;;;6.07;2.60;;;13.40;77.60;13.60;97053.00;;;;5016180;28;20214;-80
2022/11/02 03:03:05;;;;;;;4.53;2.33;;;13.40;78.00;13.70;97046.00;;;;5020650;28;20294;-80
2022/11/02 03:05:35;;;;;;;2.63;2.43;;;13.50;78.30;13.70;97043.00;;;;5022535;28;20667;-80
2022/11/02 03:08:08;;;;;;;4.73;2.77;;;13.50;78.20;13.70;97041.00;;;;5016105;28;20215;-80
2022/11/02 03:10:44;;;;;;;2.30;2.10;;;13.50;78.10;13.70;97050.00;;;;5019425;28;20289;-80
2022/11/02 03:13:35;;;;;;;2.60;2.40;;;13.60;78.00;13.80;97056.00;;;;5022378;28;20295;-80
2022/11/02 03:16:15;;;;;;;2.20;2.10;;;13.60;78.40;13.70;97066.00;;;;5023039;28;20574;-80
2022/11/02 03:18:53;;;;;;;2.03;1.93;;;13.60;77.50;13.80;97061.00;;;;5025035;28;20556;-80
2022/11/02 03:21:28;;;;;;;2.57;2.10;;;13.60;77.50;13.80;97061.00;;;;5022266;28;20616;-81
2022/11/02 03:24:01;;;;;;;2.00;1.90;;;13.60;77.50;13.80;97058.00;;;;5012214;28;20651;-80
2022/11/02 03:26:34;;;;;;;2.13;1.93;;;13.70;77.50;13.80;97070.00;;;;5021489;28;20225;-80
2022/11/02 03:29:08;;;;;;;2.37;2.03;;;13.70;77.30;13.80;97068.00;;;;5018250;28;20201;-80
2022/11/02 03:31:41;;;;;;;2.97;2.30;;;13.70;77.40;13.80;97070.00;;;;5034146;28;20194;-81
2022/11/02 03:34:26;;;;;;;2.50;2.20;;;13.70;77.80;13.90;97073.00;;;;5022987;28;20730;-79
2022/11/02 03:37:03;;;;;;;2.63;2.07;;;13.70;78.30;13.90;97082.00;;;;5013755;28;20194;-79
2022/11/02 03:39:36;;;;;;;3.73;2.00;;;13.70;78.10;13.90;97082.00;;;;5015622;28;20201;-80
2022/11/02 03:42:07;;;;;;;2.10;2.00;;;13.70;78.00;14.00;97079.00;;;;5026674;28;20200;-80
2022/11/02 03:44:38;;;;;;;2.50;2.30;;;13.80;78.10;14.00;97087.00;;;;5019518;28;20620;-81
2022/11/02 03:47:12;;;;;;;2.33;2.13;;;13.80;78.20;14.00;97099.00;;;;5023229;28;20209;-81
2022/11/02 03:49:42;;;;;;;2.27;2.07;;;13.80;78.40;14.10;97096.00;;;;5022640;28;20194;-80
2022/11/02 03:52:17;;;;;;;2.00;1.90;;;13.80;78.50;14.10;97105.00;;;;5025344;28;20205;-80
2022/11/02 03:54:54;;;;;;;2.67;2.23;;;13.90;78.70;14.20;97102.00;;;;5015636;28;20272;-80
2022/11/02 03:57:31;;;;;;;3.07;2.03;;;13.90;78.70;14.20;97095.00;;;;5027571;28;20205;-80
2022/11/02 04:00:08;;;;;;;3.90;2.33;;;13.90;78.70;14.20;97098.00;;;;5028751;28;20263;-80
2022/11/02 04:02:40;;;;;;;2.53;2.27;;;14.00;78.90;14.20;97102.00;;;;5024749;28;20248;-80
2022/11/02 04:05:08;;;;;;;2.77;1.93;;;14.00;78.60;14.20;97108.00;;;;5019045;28;21184;-81
2022/11/02 04:10:25;;;;;;;1.97;1.73;;;14.10;78.60;14.30;97109.00;;;;5024972;28;20273;-80
2022/11/02 04:15:37;;;;;;;2.10;2.00;;;14.10;78.40;14.30;97114.00;;;;5026923;28;20210;-81
2022/11/02 04:20:59;;;;;;;1.93;1.83;;;14.10;78.20;14.30;97117.00;;;;5007858;28;20222;-80
2022/11/02 04:26:11;;;;;;;2.17;1.97;;;14.20;78.00;14.30;97115.00;;;;5030012;28;20227;-80
2022/11/02 04:28:38;;;;;;;2.57;2.13;;;14.20;77.60;14.30;97119.00;;;;5016619;28;20211;-81
2022/11/02 04:31:05;;;;;;;2.53;2.00;;;14.10;77.40;14.30;97109.00;;;;5019181;28;20571;-80
2022/11/02 04:33:33;;;;;;;2.27;2.07;;;14.10;77.10;14.30;97109.00;;;;5028629;28;20246;-81
2022/11/02 04:36:02;;;;;;;2.37;2.20;;;14.10;77.00;14.20;97113.00;;;;5022197;28;20280;-81
2022/11/02 04:38:41;;;;;;;2.37;1.80;;;14.10;76.90;14.20;97109.00;;;;5021433;28;20190;-81
2022/11/02 04:43:52;;;;;;;2.03;1.90;;;14.10;76.50;14.10;97106.00;;;;5008278;28;20243;-80
2022/11/02 04:46:19;;;;;;;2.20;2.00;;;14.00;76.20;14.10;97089.00;;;;5018620;28;20293;-81
2022/11/02 04:48:48;;;;;;;2.30;2.10;;;14.00;76.30;14.00;97085.00;;;;5024525;28;20193;-79
2022/11/02 04:51:16;;;;;;;2.30;2.10;;;14.00;76.30;14.00;97081.00;;;;5022453;28;20203;-81
2022/11/02 04:53:43;;;;;;;2.17;1.83;;;13.90;76.20;14.00;97076.00;;;;5026603;28;20249;-81
2022/11/02 04:56:10;;;;;;;3.10;2.23;;;13.90;76.30;13.90;97075.00;;;;5022794;28;20210;-80
2022/11/02 04:58:38;;;;;;;2.97;2.00;;;13.90;76.30;13.90;97068.00;;;;5019366;28;20202;-80
2022/11/02 05:01:06;;;;;;;2.30;2.03;;;13.90;76.20;13.90;97071.00;;;;5016241;28;20222;-80
2022/11/02 05:03:48;;;;;;;1.60;1.50;;;13.80;76.00;13.80;97078.00;;;;5014844;28;20623;-80
2022/11/02 05:06:16;;;;;;;2.03;1.83;;;13.80;76.70;13.80;97080.00;;;;5012721;28;20281;-80
2022/11/02 05:08:43;;;;;;;1.67;1.57;;;13.80;76.10;13.80;97079.00;;;;5022051;28;20298;-80
2022/11/02 05:11:12;;;;;;;1.83;1.63;;;13.70;76.00;13.70;97083.00;;;;5028584;28;20728;-80
2022/11/02 05:13:41;;;;;;;2.30;2.10;;;13.70;76.10;13.70;97098.00;;;;5019318;28;20217;-80
2022/11/02 05:16:12;;;;;;;2.97;2.27;;;13.70;76.00;13.70;97092.00;;;;5018294;28;20202;-80
2022/11/02 05:18:39;;;;;;;2.67;2.30;;;13.60;75.80;13.70;97101.00;;;;5015504;28;20221;-80
2022/11/02 05:21:10;;;;;;;2.87;2.23;;;13.60;75.70;13.60;97095.00;;;;5032561;28;20217;-81
2022/11/02 05:23:38;;;;;;;3.30;2.00;;;13.60;75.70;13.60;97090.00;;;;5020884;28;20217;-79
2022/11/02 05:26:10;;;;;;;2.10;2.00;;;13.60;75.70;13.50;97101.00;;;;5017641;28;20210;-80
2022/11/02 05:28:37;;;;;;;2.17;1.97;;;13.50;75.50;13.50;97094.00;;;;5028938;28;20218;-80
2022/11/02 05:31:05;;;;;;;1.80;1.70;;;13.50;75.40;13.50;97086.00;;;;5024375;28;20206;-80
2022/11/02 05:33:33;;;;;;;2.17;1.97;;;13.40;75.30;13.40;97095.00;;;;5008544;28;20213;-79
2022/11/02 05:36:01;;;;;;;2.07;1.93;;;13.40;75.30;13.40;97102.00;;;;5021495;28;20204;-80
2022/11/02 05:38:30;;;;;;;2.27;2.00;;;13.40;75.50;13.40;97110.00;;;;5035630;28;20756;-80
2022/11/02 05:40:59;;;;;;;2.13;1.97;;;13.30;75.40;13.30;97116.00;;;;5026781;28;20229;-79
2022/11/02 05:43:27;;;;;;;4.23;2.20;;;13.30;75.30;13.30;97117.00;;;;5021860;28;20234;-80
2022/11/02 05:45:57;;;;;;;3.57;2.00;;;13.30;75.30;13.30;97111.00;;;;5017382;28;20247;-81
2022/11/02 05:48:26;;;;;;;3.67;2.10;;;13.20;75.30;13.20;97098.00;;;;5023788;28;20289;-81
2022/11/02 05:50:56;;;;;;;2.40;2.00;;;13.20;75.40;13.20;97097.00;;;;5015433;28;20189;-81
2022/11/02 05:53:24;;;;;;;2.33;2.10;;;13.10;75.20;13.10;97114.00;;;;5029064;28;20225;-79
2022/11/02 05:55:53;;;;;;;1.83;1.73;;;13.10;75.10;13.10;97118.00;;;;5027239;28;20229;-80
2022/11/02 05:58:20;;;;;;;3.63;1.87;;;13.10;75.10;13.10;97110.00;;;;5028938;28;20194;-80
2022/11/02 06:00:47;;;;;;;2.23;2.03;;;13.10;75.10;13.00;97115.00;;;;5031139;28;20233;-80
2022/11/02 06:03:16;;;;;;;2.50;2.30;;;13.00;75.10;13.00;97116.00;;;;5032832;28;20316;-81
2022/11/02 06:05:43;;;;;;;4.17;2.33;;;13.00;75.20;13.00;97113.00;;;;5027374;28;20206;-82
2022/11/02 06:08:10;;;;;;;3.63;2.30;;;13.00;75.30;12.90;97113.00;;;;5023353;28;20592;-81
2022/11/02 06:10:41;;;;;;;2.30;2.10;;;12.90;75.40;12.90;97120.00;;;;5010848;28;20618;-80
2022/11/02 06:13:10;;;;;;;2.93;2.27;;;12.90;75.50;12.90;97123.00;;;;5019579;28;20214;-80
2022/11/02 06:15:37;;;;;;;5.07;2.30;;;12.90;75.60;12.90;97129.00;;;;5017615;28;20566;-79
2022/11/02 06:18:05;;;;;;;2.47;2.27;;;12.90;75.70;12.90;97129.00;;;;5018538;28;20642;-79
2022/11/02 06:20:32;;;;;;;2.47;2.27;;;12.80;75.60;12.90;97123.00;;;;5025186;28;20280;-79
2022/11/02 06:22:59;;;;;;;3.90;2.40;;;12.80;75.60;12.90;97132.00;;;;5007076;28;20309;-81
2022/11/02 06:25:26;;;;;;;2.37;2.17;;;12.80;75.70;12.90;97132.00;;;;5018845;28;20229;-83
2022/11/02 06:27:56;;;;;;;3.50;2.33;;;12.80;75.70;12.90;97137.00;;;;5023283;28;20221;-81
2022/11/02 06:30:26;;;;;;;2.23;2.03;;;12.80;75.70;12.90;97138.00;;;;5021770;28;20190;-81
2022/11/02 06:32:54;;;;;;;3.10;2.50;;;12.80;75.60;12.90;97139.00;;;;5012849;28;20233;-81
2022/11/02 06:35:23;;;;;;;2.47;2.27;;;12.80;75.60;12.90;97147.00;;;;5013015;28;20226;-82
2022/11/02 06:37:50;;;;;;;2.40;2.20;;;12.80;75.60;12.90;97151.00;;;;5017722;28;20221;-81
2022/11/02 06:40:17;;;;;;;2.87;2.43;;;12.80;75.50;12.90;97156.00;;;;5022329;28;20205;-82
2022/11/02 06:42:44;;;;;;;3.50;2.43;;;12.70;75.50;12.90;97157.00;;;;5038853;28;20205;-83
2022/11/02 06:45:12;;;;;;;4.60;2.40;;;12.70;75.60;12.90;97159.00;;;;5025203;28;20206;-81
2022/11/02 06:47:40;;;;;;;2.67;2.30;;;12.70;75.70;12.90;97165.00;;;;5025506;28;20193;-82
2022/11/02 06:50:09;;;;;;;2.03;1.93;;;12.70;75.70;12.90;97177.00;;;;5025302;28;20194;-82
2022/11/02 06:52:42;;;;;;;2.37;2.17;;;12.70;75.70;12.90;97177.00;;;;5021758;28;20663;-83
2022/11/02 06:55:10;;;;;;;2.60;2.20;;;12.70;75.80;12.90;97178.00;;;;5022245;28;20250;-82
2022/11/02 06:57:38;;;;;;;2.83;2.13;;;12.70;76.00;12.90;97180.00;;;;5027350;28;20198;-82
2022/11/02 07:00:07;;;;;;;2.20;2.00;;;12.70;76.00;13.00;97189.00;;;;5022203;28;20737;-84
2022/11/02 07:02:34;;;;;;;2.23;2.00;;;12.70;76.10;13.00;97190.00;;;;5023352;28;20221;-81
2022/11/02 07:05:03;;;;;;;2.53;2.33;;;12.80;76.30;13.00;97188.00;;;;5031822;28;20241;-82
2022/11/02 07:07:30;;;;;;;3.27;2.30;;;12.80;76.40;13.00;97198.00;;;;5024914;28;20796;-80
2022/11/02 07:09:57;;;;;;;2.83;2.63;;;12.80;76.40;13.00;97199.00;;;;5022769;28;20193;-82
2022/11/02 07:12:24;;;;;;;2.70;2.20;;;12.80;76.50;13.10;97202.00;;;;5021746;28;20269;-82
2022/11/02 07:14:51;;;;;;;2.90;2.70;;;12.80;76.60;13.10;97198.00;;;;5018651;28;20217;-83
2022/11/02 07:17:19;;;;;;;3.13;2.30;;;12.80;76.60;13.10;97204.00;;;;5019232;28;20229;-81
2022/11/02 07:19:46;;;;;;;2.53;2.10;;;12.90;76.80;13.10;97203.00;;;;5017414;28;20227;-83
2022/11/02 07:22:14;;;;;;;2.53;2.10;;;12.90;76.90;13.20;97206.00;;;;5022779;28;20222;-82
2022/11/02 07:24:42;;;;;;;3.17;2.70;;;12.90;77.10;13.20;97199.00;;;;5029367;28;20749;-83
2022/11/02 07:27:09;;;;;;;2.63;2.43;;;12.90;77.60;13.30;97206.00;;;;5031524;28;20201;-82
2022/11/02 07:29:36;;;;;;;3.17;2.23;;;13.00;78.20;13.40;97202.00;;;;5019663;28;20238;-83
2022/11/02 07:32:05;;;;;;;2.37;2.17;;;13.10;78.40;13.50;97192.00;;;;5019916;28;20202;-82
2022/11/02 07:34:32;;;;;;;2.43;2.23;;;13.10;78.50;13.60;97190.00;;;;5019190;28;20225;-84
2022/11/02 07:36:59;;;;;;;2.63;2.43;;;13.20;78.70;13.60;97203.00;;;;5018841;28;20237;-82
2022/11/02 07:39:28;;;;;;;2.80;2.43;;;13.20;78.80;13.70;97204.00;;;;5019002;28;20198;-84
2022/11/02 07:41:55;;;;;;;4.10;2.40;;;13.30;78.90;13.70;97201.00;;;;5012344;28;20217;-82
2022/11/02 07:44:22;;;;;;;3.73;2.70;;;13.40;79.00;13.80;97199.00;;;;5012923;28;20687;-85
2022/11/02 07:46:49;;;;;;;3.43;2.63;;;13.40;79.20;13.90;97196.00;;;;5015388;28;20218;-83
2022/11/02 07:49:17;;;;;;;3.57;2.10;;;13.50;79.80;14.00;97193.00;;;;5014637;28;20198;-83
2022/11/02 07:51:44;;;;;;;3.40;2.67;;;13.60;80.20;14.10;97194.00;;;;5019061;28;20721;-82
2022/11/02 07:54:11;;;;;;;4.43;2.30;;;13.70;80.50;14.20;97202.00;;;;5022229;28;20317;-84
2022/11/02 07:56:40;;;;;;;2.73;2.27;;;13.80;80.80;14.40;97214.00;;;;5014017;28;20639;-84
2022/11/02 07:59:07;;;;;;;2.40;2.20;;;13.90;81.00;14.50;97211.00;;;;5011018;28;20202;-85
2022/11/02 08:01:34;;;;;;;3.10;2.63;;;14.00;81.30;14.60;97219.00;;;;5016503;28;20249;-83
2022/11/02 08:04:01;;;;;;;3.50;2.73;;;14.10;81.50;14.80;97215.00;;;;5016616;28;20248;-83
2022/11/02 08:06:28;;;;;;;2.60;2.40;;;14.20;81.60;14.90;97219.00;;;;5015803;28;20209;-85
2022/11/02 08:08:55;;;;;;;2.60;2.40;;;14.50;81.70;15.00;97218.00;;;;5015801;28;20226;-84
2022/11/02 08:11:23;;;;;;;2.53;2.33;;;14.50;81.60;15.10;97223.00;;;;5015663;28;20264;-83
2022/11/02 08:13:51;;;;;;;3.07;2.70;;;14.50;81.40;15.20;97219.00;;;;5012535;28;20242;-84
2022/11/02 08:16:18;;;;;;;3.70;2.70;;;14.70;81.40;15.20;97224.00;;;;5015262;28;20685;-84
2022/11/02 08:18:45;;;;;;;2.90;2.70;;;14.70;81.20;15.30;97218.00;;;;5014587;28;20288;-85
2022/11/02 08:21:12;;;;;;;3.00;2.80;;;14.80;81.10;15.40;97224.00;;;;5015017;28;20267;-84
2022/11/02 08:23:40;;;;;;;2.90;2.70;;;14.90;81.00;15.50;97232.00;;;;5014072;28;20217;-84
2022/11/02 08:26:07;;;;;;;2.87;2.67;;;15.00;80.90;15.60;97233.00;;;;5014448;28;20240;-84
2022/11/02 08:28:38;;;;;;;6.20;3.33;;;15.10;80.80;15.70;97231.00;;;;5014380;28;20198;-84
2022/11/02 08:31:11;;;;;;;3.50;3.10;;;15.20;80.70;15.70;97227.00;;;;5015370;28;20206;-83
2022/11/02 08:33:38;;;;;;;3.50;3.00;;;15.30;80.60;15.80;97230.00;;;;5015266;28;20264;-84
2022/11/02 08:36:07;;;;;;;3.47;2.47;;;15.30;80.50;15.90;97226.00;;;;5014128;28;20823;-83
2022/11/02 08:38:34;;;;;;;4.13;2.50;;;15.40;80.60;16.00;97223.00;;;;5015311;28;20330;-84
2022/11/02 08:41:01;;;;;;;3.13;2.50;;;15.50;80.70;16.00;97227.00;;;;5015045;28;20239;-84
2022/11/02 08:43:28;;;;;;;4.37;2.80;;;15.60;80.80;16.10;97228.00;;;;5015752;28;20683;-85
2022/11/02 08:45:59;;;;;;;5.13;2.67;;;15.60;80.60;16.20;97229.00;;;;5015797;28;20651;-84
2022/11/02 08:48:27;;;;;;;2.67;2.33;;;15.70;80.60;16.30;97224.00;;;;5013371;28;20289;-84
2022/11/02 08:50:55;;;;;;;2.60;2.40;;;15.80;80.40;16.40;97223.00;;;;5015269;28;20202;-85
2022/11/02 08:53:22;;;;;;;2.60;2.30;;;15.90;80.40;16.40;97221.00;;;;5015531;28;20213;-83
2022/11/02 08:55:50;;;;;;;2.57;2.37;;;15.90;80.30;16.50;97224.00;;;;5016806;28;20669;-87
2022/11/02 08:58:17;;;;;;;2.57;2.30;;;16.00;80.40;16.60;97223.00;;;;5020889;28;20201;-84
2022/11/02 09:00:44;;;;;;;3.67;2.40;;;16.10;80.30;16.70;97231.00;;;;5019285;28;20578;-84
2022/11/02 09:03:15;;;;;;;4.03;2.83;;;16.20;80.20;16.70;97221.00;;;;5020952;28;20221;-83
2022/11/02 09:05:45;;;;;;;3.70;3.27;;;16.20;79.90;16.80;97227.00;;;;5018910;28;20218;-83
2022/11/02 09:08:15;;;;;;;4.87;2.87;;;16.30;79.70;16.80;97233.00;;;;5020167;28;20236;-83
2022/11/02 09:10:44;;;;;;;2.83;2.53;;;16.40;79.70;16.90;97235.00;;;;5019031;28;20333;-82
2022/11/02 09:13:14;;;;;;;2.07;1.97;;;16.40;79.50;17.00;97235.00;;;;5019725;28;20309;-85
2022/11/02 09:15:42;;;;;;;2.63;2.43;;;16.50;79.40;17.00;97231.00;;;;5019489;28;20206;-84
2022/11/02 09:18:10;;;;;;;2.07;1.90;;;16.60;79.40;17.10;97238.00;;;;5016448;28;20232;-85
2022/11/02 09:20:38;;;;;;;2.47;2.27;;;16.60;79.40;17.20;97232.00;;;;5018532;28;20238;-84
2022/11/02 09:23:06;;;;;;;2.53;1.97;;;16.70;79.40;17.30;97235.00;;;;5017175;28;20226;-84
2022/11/02 09:25:33;;;;;;;1.90;1.80;;;16.80;79.40;17.30;97233.00;;;;5016880;28;20214;-84
2022/11/02 09:28:01;;;;;;;1.80;1.70;;;16.80;79.30;17.40;97249.00;;;;5018208;28;20245;-84
2022/11/02 09:30:28;;;;;;;2.57;1.83;;;16.90;79.10;17.40;97247.00;;;;5018979;28;20306;-85
2022/11/02 09:32:56;;;;;;;2.47;1.83;;;16.90;79.00;17.50;97244.00;;;;5017702;28;20648;-84
2022/11/02 09:35:25;;;;;;;4.63;1.70;;;17.00;78.80;17.60;97247.00;;;;5018562;28;20201;-87
2022/11/02 09:37:52;;;;;;;2.13;1.60;;;17.10;78.90;17.70;97252.00;;;;5017890;28;20296;-85
2022/11/02 09:40:24;;;;;;;1.40;1.30;;;17.20;78.80;17.70;97260.00;;;;5017513;28;20229;-84
2022/11/02 09:43:06;;;;;;;1.77;1.50;;;17.20;78.80;17.80;97257.00;;;;5018326;28;20253;-83
2022/11/02 09:45:39;;;;;;;1.93;1.50;;;17.30;78.50;17.90;97260.00;;;;5018329;28;20634;-84
2022/11/02 09:48:16;;;;;;;1.60;1.50;;;17.40;78.40;18.00;97261.00;;;;5018163;28;20630;-87
2022/11/02 09:50:52;;;;;;;2.33;1.50;;;17.50;78.10;18.10;97258.00;;;;5015128;28;20248;-85
2022/11/02 09:53:29;;;;;;;2.40;1.40;;;17.60;78.70;18.20;97263.00;;;;5016821;28;20229;-84
2022/11/02 09:56:02;;;;;;;2.87;1.80;;;17.70;77.70;18.30;97267.00;;;;5017154;28;20280;-84
2022/11/02 09:58:37;;;;;;;3.43;1.67;;;17.70;77.40;18.40;97272.00;;;;5014136;28;20236;-85
2022/11/02 10:01:22;;;;;;;2.13;1.90;;;17.80;76.90;18.40;97276.00;;;;5013897;28;20258;-84
2022/11/02 10:04:18;;;;;;;1.77;1.67;;;17.90;76.90;18.50;97276.00;;;;5016730;28;20324;-84
2022/11/02 10:06:54;;;;;;;2.80;1.80;;;18.00;76.20;18.50;97271.00;;;;5014075;28;20252;-84
2022/11/02 10:09:34;;;;;;;2.00;1.70;;;18.00;76.50;18.60;97270.00;;;;5012249;28;20247;-84
2022/11/02 10:12:12;;;;;;;1.73;1.40;;;18.10;76.40;18.70;97274.00;;;;5016161;28;20194;-84
2022/11/02 10:14:51;;;;;;;2.23;1.60;;;18.20;76.40;18.80;97275.00;;;;5011664;28;20276;-84
2022/11/02 10:17:24;;;;;;;1.37;1.10;;;18.30;77.00;19.00;97277.00;;;;5016716;28;20624;-84
2022/11/02 10:19:58;;;;;;;1.67;1.57;;;18.40;77.30;19.20;97283.00;;;;5007394;28;20232;-85
2022/11/02 10:22:32;;;;;;;2.70;1.70;;;18.60;77.40;19.30;97272.00;;;;5010938;28;20691;-85
2022/11/02 10:25:05;;;;;;;2.63;1.73;;;18.70;77.50;19.50;97270.00;;;;5008727;28;20264;-85
2022/11/02 10:27:39;;;;;;;2.80;1.47;;;18.90;77.10;19.60;97276.00;;;;5016374;28;20210;-84
2022/11/02 10:30:13;;;;;;;3.07;1.37;;;19.00;76.60;19.70;97272.00;;;;5017665;28;20221;-81
2022/11/02 10:32:43;;;;;;;1.77;1.23;;;19.20;76.20;19.80;97269.00;;;;5022489;28;20213;-81
2022/11/02 10:35:20;;;;;;;1.30;1.20;;;19.30;75.20;19.90;97279.00;;;;5007637;28;20222;-82
2022/11/02 10:38:09;;;;;;;1.37;1.20;;;19.40;74.60;19.90;97276.00;;;;5016789;28;20281;-82
2022/11/02 10:41:17;;;;;;;1.97;1.30;;;19.50;73.80;20.00;97276.00;;;;5017847;28;20725;-80
2022/11/02 10:44:08;;;;;;;3.63;1.17;;;19.60;73.10;20.00;97269.00;;;;5011863;28;20295;-82
2022/11/02 10:46:54;;;;;;;2.13;1.20;;;19.60;72.80;20.10;97270.00;;;;5017601;28;20222;-82
2022/11/02 10:49:52;;;;;;;2.00;1.20;;;19.70;73.10;20.10;97276.00;;;;5017905;28;20261;-83
2022/11/02 10:52:19;;;;;;;1.37;1.00;;;19.70;71.90;20.10;97277.00;;;;5010033;28;20289;-83
2022/11/02 10:54:50;;;;;;;3.77;1.23;;;19.70;71.70;20.20;97274.00;;;;5017554;28;20210;-84
2022/11/02 10:57:24;;;;;;;9.07;1.60;;;19.80;71.30;20.20;97278.00;;;;5017478;28;20252;-82
2022/11/02 11:00:29;;;;;;;5.53;1.37;;;19.80;71.20;20.20;97285.00;;;;5016610;28;20228;-83
2022/11/02 11:03:05;;;;;;;1.67;0.70;;;19.80;69.50;20.20;97288.00;;;;5012816;28;20213;-83
2022/11/02 11:05:34;;;;;;;3.30;0.70;;;19.80;69.10;20.20;97276.00;;;;5017797;28;20233;-84
2022/11/02 11:08:03;;;;;;;5.80;0.97;;;19.80;69.30;20.10;97282.00;;;;5030947;28;20221;-83
2022/11/02 11:10:37;;;;;;;2.90;0.93;;;19.70;68.40;20.10;97274.00;;;;5016660;28;20299;-83
2022/11/02 11:13:06;;;;;;;1.30;0.80;;;19.70;67.70;20.00;97274.00;;;;5016710;28;20198;-83
2022/11/02 11:15:35;;;;;;;3.97;0.70;;;19.70;67.90;20.00;97279.00;;;;5016696;28;20293;-83
2022/11/02 11:18:13;;;;;;;1.73;0.93;;;19.70;67.60;20.00;97267.00;;;;5016467;28;20297;-83
2022/11/02 11:20:42;;;;;;;1.93;0.90;;;19.70;66.60;20.00;97279.00;;;;5011136;28;20534;-83
2022/11/02 11:23:20;;;;;;;2.73;0.63;;;19.60;67.10;20.00;97271.00;;;;5013163;28;20230;-84
2022/11/02 11:26:02;;;;;;;5.47;1.17;;;19.60;66.40;20.00;97270.00;;;;5015436;28;20730;-83